Time;durP1;ratioP1;P1;durP2;ratioP2;P2;SDS_P1;SDS_P2;PMS_P1;PMS_P2;Temp;Humidity;BMP_temperature;BMP_pressure;BME280_temperature;BME280_humidity;BME280_pressure;Samples;Min_cycle;Max_cycle;Signal;HPM_P1;HPM_P2
2024/03/01 00:02:07;;;;;;;4.60;3.60;;;11.20;99.90;;;;;;5070259;28;20183;-87
2024/03/01 00:04:32;;;;;;;4.93;3.53;;;11.30;99.90;;;;;;5070887;28;20625;-86
2024/03/01 00:06:58;;;;;;;4.53;3.30;;;11.30;99.90;;;;;;5070718;28;20196;-87
2024/03/01 00:09:23;;;;;;;3.80;3.13;;;11.30;99.90;;;;;;5071227;28;20589;-89
2024/03/01 00:11:49;;;;;;;5.13;3.37;;;11.20;99.90;;;;;;5072145;28;20175;-86
2024/03/01 00:14:15;;;;;;;3.67;3.33;;;11.20;99.90;;;;;;5070059;28;20616;-87
2024/03/01 00:16:40;;;;;;;4.83;3.27;;;11.20;99.90;;;;;;5071615;28;20622;-86
2024/03/01 00:19:06;;;;;;;4.93;3.33;;;11.10;99.90;;;;;;5075379;28;20169;-87
2024/03/01 00:21:32;;;;;;;3.80;3.03;;;11.20;99.90;;;;;;5073999;28;20173;-90
2024/03/01 00:23:57;;;;;;;4.00;3.20;;;11.20;99.90;;;;;;5076080;28;20253;-88
2024/03/01 00:26:23;;;;;;;3.97;3.07;;;11.20;99.90;;;;;;5075770;28;20255;-87
2024/03/01 00:28:48;;;;;;;3.83;3.20;;;11.30;99.90;;;;;;5075805;28;20173;-85
2024/03/01 00:31:14;;;;;;;3.67;3.07;;;11.20;99.90;;;;;;5074140;28;20176;-88
2024/03/01 00:33:40;;;;;;;3.93;3.13;;;11.30;99.90;;;;;;5074770;28;20174;-87
2024/03/01 00:36:06;;;;;;;3.90;3.00;;;11.30;99.90;;;;;;5074937;28;20637;-86
2024/03/01 00:38:32;;;;;;;3.60;3.00;;;11.30;99.90;;;;;;5074580;28;20268;-85
2024/03/01 00:40:57;;;;;;;3.70;3.20;;;11.40;99.90;;;;;;5075073;28;20207;-84
2024/03/01 00:43:23;;;;;;;3.83;3.23;;;11.40;99.90;;;;;;5074605;28;20172;-86
2024/03/01 00:45:49;;;;;;;4.37;3.07;;;11.30;99.90;;;;;;5075268;28;20204;-84
2024/03/01 00:48:15;;;;;;;4.90;3.17;;;11.40;99.90;;;;;;5074721;28;20175;-86
2024/03/01 00:50:41;;;;;;;3.87;3.00;;;11.30;99.90;;;;;;5074399;28;20198;-90
2024/03/01 00:53:08;;;;;;;4.50;3.30;;;11.30;99.90;;;;;;5075971;28;20164;-88
2024/03/01 00:55:35;;;;;;;3.83;3.10;;;11.30;99.90;;;;;;5075053;28;20168;-86
2024/03/01 00:58:01;;;;;;;3.53;3.00;;;11.30;99.90;;;;;;5073874;28;20169;-86
2024/03/01 01:00:27;;;;;;;5.67;3.30;;;11.30;99.90;;;;;;5074584;28;20295;-86
2024/03/01 01:02:53;;;;;;;3.83;3.40;;;11.30;99.90;;;;;;5073609;28;20172;-85
2024/03/01 01:05:19;;;;;;;3.40;3.10;;;11.40;99.90;;;;;;5072105;28;20603;-85
2024/03/01 01:07:44;;;;;;;4.10;2.97;;;11.30;99.90;;;;;;5073769;28;20189;-86
2024/03/01 01:10:10;;;;;;;3.33;3.03;;;11.30;99.90;;;;;;5073799;28;20687;-85
2024/03/01 01:12:36;;;;;;;3.40;3.10;;;11.40;99.90;;;;;;5073689;28;20172;-85
2024/03/01 01:15:03;;;;;;;3.63;3.03;;;11.30;99.90;;;;;;5074162;28;20165;-86
2024/03/01 01:17:30;;;;;;;3.83;3.30;;;11.30;99.90;;;;;;5074246;28;20182;-86
2024/03/01 01:19:57;;;;;;;5.87;3.60;;;11.20;99.90;;;;;;5074254;28;20200;-88
2024/03/01 01:22:24;;;;;;;4.80;3.20;;;11.20;99.90;;;;;;5073796;28;20250;-88
2024/03/01 01:24:50;;;;;;;3.80;3.37;;;11.20;99.90;;;;;;5074148;28;20208;-88
2024/03/01 01:27:15;;;;;;;4.57;3.10;;;11.20;99.90;;;;;;5072840;28;20192;-87
2024/03/01 01:29:41;;;;;;;1.87;1.47;;;11.20;99.90;;;;;;5073835;28;20181;-87
2024/03/01 01:32:07;;;;;;;1.73;1.60;;;10.20;99.90;;;;;;5073294;28;20180;-88
2024/03/01 01:34:33;;;;;;;1.97;1.50;;;9.50;99.90;;;;;;5073732;28;20173;-86
2024/03/01 01:36:59;;;;;;;2.20;1.70;;;9.10;99.90;;;;;;5074031;28;20180;-87
2024/03/01 01:39:25;;;;;;;1.83;1.53;;;8.70;99.90;;;;;;5074594;28;20240;-86
2024/03/01 01:41:50;;;;;;;2.97;1.90;;;8.40;99.90;;;;;;5074276;28;20188;-86
2024/03/01 01:44:16;;;;;;;2.83;1.63;;;8.30;99.90;;;;;;5072164;28;20624;-87
2024/03/01 01:46:43;;;;;;;1.60;1.30;;;8.10;99.90;;;;;;5074544;28;20183;-85
2024/03/01 01:49:09;;;;;;;2.33;1.70;;;8.00;99.90;;;;;;5074392;28;20187;-85
2024/03/01 01:51:35;;;;;;;3.40;1.77;;;7.90;99.90;;;;;;5077699;28;20188;-83
2024/03/01 01:54:02;;;;;;;2.50;1.70;;;7.90;99.90;;;;;;5075751;28;20239;-85
2024/03/01 01:56:28;;;;;;;1.80;1.50;;;7.90;99.90;;;;;;5073371;28;20181;-84
2024/03/01 01:58:57;;;;;;;1.90;1.50;;;7.80;99.90;;;;;;5073930;28;20259;-87
2024/03/01 02:01:23;;;;;;;2.00;1.50;;;7.80;99.90;;;;;;5072597;28;20294;-86
2024/03/01 02:03:50;;;;;;;2.57;1.70;;;7.70;99.90;;;;;;5073149;28;20636;-87
2024/03/01 02:06:15;;;;;;;2.10;1.43;;;7.70;99.90;;;;;;5073055;28;20295;-85
2024/03/01 02:08:41;;;;;;;3.40;1.60;;;7.70;99.90;;;;;;5073062;28;20196;-86
2024/03/01 02:11:07;;;;;;;2.57;1.50;;;7.80;99.90;;;;;;5072580;28;20530;-86
2024/03/01 02:13:33;;;;;;;1.77;1.30;;;7.80;99.90;;;;;;5073580;28;20386;-86
2024/03/01 02:15:59;;;;;;;1.17;1.00;;;7.80;99.90;;;;;;5073305;28;20177;-87
2024/03/01 02:18:25;;;;;;;1.73;1.30;;;7.80;99.90;;;;;;5072197;28;20543;-87
2024/03/01 02:20:59;;;;;;;2.17;1.40;;;7.70;99.90;;;;;;5073053;28;20180;-87
2024/03/01 02:23:25;;;;;;;1.30;1.20;;;7.70;99.90;;;;;;5073374;28;20211;-88
2024/03/01 02:25:51;;;;;;;2.23;1.67;;;7.90;99.90;;;;;;5072789;28;20215;-86
2024/03/01 02:28:18;;;;;;;4.03;2.33;;;7.90;99.90;;;;;;5073000;28;20169;-85
2024/03/01 02:30:44;;;;;;;3.07;1.80;;;7.90;99.90;;;;;;5073038;28;20262;-87
2024/03/01 02:33:11;;;;;;;2.33;1.80;;;7.80;99.90;;;;;;5072199;28;20184;-89
2024/03/01 02:35:37;;;;;;;2.60;2.13;;;7.90;99.90;;;;;;5070970;28;20194;-89
2024/03/01 02:38:03;;;;;;;3.77;2.30;;;7.90;99.90;;;;;;5073023;28;20176;-88
2024/03/01 02:40:32;;;;;;;2.90;2.30;;;7.80;99.90;;;;;;5070853;28;20321;-84
2024/03/01 02:42:58;;;;;;;4.33;2.70;;;7.90;99.90;;;;;;5071795;28;20168;-88
2024/03/01 02:45:23;;;;;;;4.87;3.00;;;8.10;99.90;;;;;;5071101;28;20202;-84
2024/03/01 02:47:49;;;;;;;3.80;2.83;;;8.00;99.90;;;;;;5072457;28;20182;-86
2024/03/01 02:50:15;;;;;;;3.20;2.60;;;7.90;99.90;;;;;;5071661;28;20164;-85
2024/03/01 02:52:40;;;;;;;4.00;2.80;;;8.00;99.90;;;;;;5072189;28;20183;-86
2024/03/01 02:55:07;;;;;;;4.87;3.37;;;7.80;99.90;;;;;;5071268;28;20177;-85
2024/03/01 02:57:33;;;;;;;4.63;3.47;;;7.70;99.90;;;;;;5073804;28;20164;-84
2024/03/01 02:59:59;;;;;;;5.57;3.53;;;7.80;99.90;;;;;;5070845;28;20200;-85
2024/03/01 03:02:26;;;;;;;6.03;4.07;;;7.80;99.90;;;;;;5071921;28;20174;-87
2024/03/01 03:04:53;;;;;;;5.10;3.90;;;7.70;99.90;;;;;;5071651;28;20200;-88
2024/03/01 03:07:20;;;;;;;6.67;4.57;;;7.60;99.90;;;;;;5083667;28;20215;-85
2024/03/01 03:09:45;;;;;;;5.37;4.70;;;7.60;99.90;;;;;;5091437;28;20281;-88
2024/03/01 03:12:11;;;;;;;6.50;4.83;;;7.70;99.90;;;;;;5091706;28;20818;-86
2024/03/01 03:14:37;;;;;;;6.90;4.73;;;7.80;99.90;;;;;;5094201;28;20171;-88
2024/03/01 03:17:04;;;;;;;7.47;4.53;;;7.70;99.90;;;;;;5092422;28;20171;-87
2024/03/01 03:19:30;;;;;;;5.37;4.27;;;7.70;99.90;;;;;;5093250;28;20195;-86
2024/03/01 03:21:56;;;;;;;5.13;4.33;;;7.80;99.90;;;;;;5091905;28;20202;-87
2024/03/01 03:24:22;;;;;;;7.53;4.63;;;7.70;99.90;;;;;;5091350;28;20225;-88
2024/03/01 03:26:48;;;;;;;6.23;4.60;;;7.70;99.90;;;;;;5091939;28;20274;-84
2024/03/01 03:29:13;;;;;;;8.20;4.40;;;7.80;99.90;;;;;;5091431;28;20203;-86
2024/03/01 03:31:41;;;;;;;6.80;4.87;;;7.70;99.90;;;;;;5091673;28;20183;-87
2024/03/01 03:34:07;;;;;;;7.27;5.63;;;7.60;99.90;;;;;;5091215;28;20175;-87
2024/03/01 03:36:33;;;;;;;9.03;6.00;;;7.60;99.90;;;;;;5090266;28;20171;-83
2024/03/01 03:38:58;;;;;;;8.53;5.63;;;7.60;99.90;;;;;;5091577;28;20700;-87
2024/03/01 03:41:24;;;;;;;10.93;7.87;;;7.80;99.90;;;;;;5092059;28;20167;-87
2024/03/01 03:43:50;;;;;;;9.87;6.93;;;7.60;99.90;;;;;;5091075;28;20670;-89
2024/03/01 03:46:16;;;;;;;8.50;6.13;;;7.70;99.90;;;;;;5091492;28;20671;-87
2024/03/01 03:48:41;;;;;;;10.87;7.00;;;7.70;99.90;;;;;;5091620;28;20203;-86
2024/03/01 03:51:07;;;;;;;10.17;7.13;;;7.80;99.90;;;;;;5091754;28;20569;-88
2024/03/01 03:53:32;;;;;;;9.90;6.57;;;7.70;99.90;;;;;;5091157;28;20178;-88
2024/03/01 03:55:59;;;;;;;9.43;6.50;;;7.70;99.90;;;;;;5090689;28;20640;-85
2024/03/01 03:58:25;;;;;;;8.93;6.67;;;7.80;99.90;;;;;;5091417;28;20182;-86
2024/03/01 04:00:50;;;;;;;9.57;6.90;;;7.60;99.90;;;;;;5089813;28;20188;-86
2024/03/01 04:03:16;;;;;;;9.73;7.50;;;7.90;99.90;;;;;;5089837;28;20185;-84
2024/03/01 04:05:42;;;;;;;9.37;7.53;;;7.80;99.90;;;;;;5090551;28;20207;-87
2024/03/01 04:08:07;;;;;;;11.20;9.23;;;7.70;99.90;;;;;;5091538;28;20194;-86
2024/03/01 04:10:33;;;;;;;9.87;8.20;;;7.80;99.90;;;;;;5091433;28;20171;-86
2024/03/01 04:13:00;;;;;;;11.13;8.53;;;7.70;99.90;;;;;;5091728;28;20164;-85
2024/03/01 04:15:26;;;;;;;10.43;8.20;;;7.70;99.90;;;;;;5090855;28;20176;-85
2024/03/01 04:17:52;;;;;;;11.47;9.37;;;7.80;99.90;;;;;;5091144;28;20233;-86
2024/03/01 04:20:17;;;;;;;11.40;9.60;;;7.60;99.90;;;;;;5090146;28;20188;-85
2024/03/01 04:22:44;;;;;;;12.20;8.97;;;7.60;99.90;;;;;;5090462;28;20277;-85
2024/03/01 04:25:10;;;;;;;12.53;9.53;;;7.60;99.90;;;;;;5091582;28;20355;-85
2024/03/01 04:27:38;;;;;;;11.57;9.13;;;7.60;99.90;;;;;;5091386;28;20180;-84
2024/03/01 04:30:08;;;;;;;10.83;8.53;;;7.40;99.90;;;;;;5090988;28;20175;-87
2024/03/01 04:32:34;;;;;;;11.13;7.60;;;7.30;99.90;;;;;;5090903;28;20201;-86
2024/03/01 04:34:59;;;;;;;10.37;8.23;;;7.70;99.90;;;;;;5091605;28;20175;-83
2024/03/01 04:37:26;;;;;;;11.50;8.33;;;7.70;99.90;;;;;;5091532;28;20721;-87
2024/03/01 04:39:52;;;;;;;9.47;7.07;;;7.80;99.90;;;;;;5091422;28;20720;-85
2024/03/01 04:42:17;;;;;;;10.73;7.70;;;7.60;99.90;;;;;;5091432;28;20175;-87
2024/03/01 04:44:43;;;;;;;12.93;7.80;;;7.70;99.90;;;;;;5091541;28;20689;-83
2024/03/01 04:47:10;;;;;;;13.13;7.30;;;7.50;99.90;;;;;;5090485;28;20180;-84
2024/03/01 04:49:36;;;;;;;12.97;8.13;;;7.40;99.90;;;;;;5097668;28;20677;-84
2024/03/01 04:52:02;;;;;;;12.17;8.03;;;7.50;99.90;;;;;;5101709;28;20180;-85
2024/03/01 04:54:28;;;;;;;12.03;8.30;;;7.40;99.90;;;;;;5090435;28;20171;-88
2024/03/01 04:56:56;;;;;;;13.30;8.07;;;7.30;99.90;;;;;;5091107;28;20176;-85
2024/03/01 04:59:22;;;;;;;12.87;8.53;;;7.40;99.90;;;;;;5091429;28;20212;-84
2024/03/01 05:01:47;;;;;;;12.90;7.33;;;7.20;99.90;;;;;;5090144;28;20226;-87
2024/03/01 05:04:13;;;;;;;12.53;7.97;;;7.20;99.90;;;;;;5093187;28;20176;-88
2024/03/01 05:06:39;;;;;;;14.03;8.30;;;7.20;99.90;;;;;;5093806;28;20214;-85
2024/03/01 05:09:07;;;;;;;12.47;8.20;;;7.10;99.90;;;;;;5093625;28;20606;-84
2024/03/01 05:11:35;;;;;;;11.03;7.67;;;7.10;99.90;;;;;;5094649;28;20232;-86
2024/03/01 05:14:01;;;;;;;12.23;7.97;;;7.00;99.90;;;;;;5094748;28;20647;-86
2024/03/01 05:16:27;;;;;;;11.43;8.43;;;7.00;99.90;;;;;;5094469;28;20175;-85
2024/03/01 05:18:53;;;;;;;11.50;8.23;;;7.00;99.90;;;;;;5094086;28;20673;-87
2024/03/01 05:21:22;;;;;;;10.73;7.63;;;7.00;99.90;;;;;;5093807;28;20206;-87
2024/03/01 05:23:51;;;;;;;12.87;7.40;;;7.10;99.90;;;;;;5093248;28;20168;-86
2024/03/01 05:26:17;;;;;;;15.17;8.43;;;7.00;99.90;;;;;;5093746;28;20238;-87
2024/03/01 05:28:42;;;;;;;9.73;7.20;;;7.00;99.90;;;;;;5094281;28;20607;-87
2024/03/01 05:31:08;;;;;;;10.93;7.87;;;7.10;99.90;;;;;;5094060;28;20639;-85
2024/03/01 05:33:34;;;;;;;8.33;6.93;;;7.00;99.90;;;;;;5094196;28;20179;-86
2024/03/01 05:36:01;;;;;;;10.63;7.90;;;6.90;99.90;;;;;;5095369;28;20195;-86
2024/03/01 05:38:26;;;;;;;11.43;8.00;;;7.00;99.90;;;;;;5094130;28;20172;-87
2024/03/01 05:40:52;;;;;;;12.70;7.87;;;6.90;99.90;;;;;;5094229;28;20175;-85
2024/03/01 05:43:22;;;;;;;10.57;7.20;;;7.00;99.90;;;;;;5093467;28;20271;-85
2024/03/01 05:45:47;;;;;;;12.10;7.97;;;6.90;99.90;;;;;;5094294;28;20215;-83
2024/03/01 05:48:13;;;;;;;9.77;7.10;;;7.00;99.90;;;;;;5093645;28;20198;-85
2024/03/01 05:50:39;;;;;;;11.03;7.83;;;7.10;99.90;;;;;;5093520;28;20179;-86
2024/03/01 05:53:04;;;;;;;9.87;7.07;;;6.90;99.90;;;;;;5095263;28;20200;-86
2024/03/01 05:55:30;;;;;;;11.60;5.80;;;6.80;99.90;;;;;;5093974;28;20552;-87
2024/03/01 05:57:56;;;;;;;8.80;6.77;;;6.90;99.90;;;;;;5093590;28;20170;-86
2024/03/01 06:00:25;;;;;;;9.93;6.67;;;6.70;99.90;;;;;;5093409;28;20191;-86
2024/03/01 06:02:51;;;;;;;11.80;6.60;;;6.70;99.90;;;;;;5092803;28;20221;-84
2024/03/01 06:05:18;;;;;;;11.23;6.17;;;6.90;99.90;;;;;;5093766;28;20671;-86
2024/03/01 06:07:44;;;;;;;9.07;6.13;;;6.70;99.90;;;;;;5094855;28;20240;-89
2024/03/01 06:10:12;;;;;;;11.73;6.20;;;6.80;99.90;;;;;;5092778;28;20178;-85
2024/03/01 06:12:38;;;;;;;11.17;6.70;;;6.80;99.90;;;;;;5094190;28;20662;-85
2024/03/01 06:15:04;;;;;;;12.67;6.10;;;6.70;99.90;;;;;;5091185;28;20168;-85
2024/03/01 06:17:33;;;;;;;10.63;5.77;;;6.70;99.90;;;;;;5092456;28;20581;-86
2024/03/01 06:19:59;;;;;;;10.27;5.83;;;6.70;99.90;;;;;;5092358;28;20172;-88
2024/03/01 06:22:25;;;;;;;10.87;6.30;;;6.90;99.90;;;;;;5093815;28;20216;-87
2024/03/01 06:24:50;;;;;;;8.77;5.43;;;6.80;99.90;;;;;;5092403;28;20687;-85
2024/03/01 06:27:16;;;;;;;9.97;5.77;;;6.90;99.90;;;;;;5094491;28;20719;-86
2024/03/01 06:29:42;;;;;;;12.57;5.90;;;6.70;99.90;;;;;;5094572;28;20212;-82
2024/03/01 06:32:10;;;;;;;12.47;5.97;;;6.70;99.90;;;;;;5097053;28;20533;-85
2024/03/01 06:34:36;;;;;;;11.30;5.73;;;6.60;99.90;;;;;;5093184;28;20175;-87
2024/03/01 06:37:03;;;;;;;11.57;5.93;;;6.80;99.90;;;;;;5092546;28;20173;-86
2024/03/01 06:39:29;;;;;;;13.07;6.67;;;6.80;99.90;;;;;;5091749;28;20175;-84
2024/03/01 06:41:57;;;;;;;10.27;5.77;;;6.70;99.90;;;;;;5092950;28;20174;-86
2024/03/01 06:44:25;;;;;;;11.93;6.00;;;6.90;99.90;;;;;;5092543;28;20221;-86
2024/03/01 06:46:54;;;;;;;8.90;5.53;;;6.80;99.90;;;;;;5091745;28;20176;-84
2024/03/01 06:49:20;;;;;;;10.17;6.33;;;6.70;99.90;;;;;;5093344;28;20251;-85
2024/03/01 06:51:46;;;;;;;12.50;6.43;;;6.70;99.90;;;;;;5091969;28;20264;-89
2024/03/01 06:54:12;;;;;;;10.03;5.90;;;6.80;99.90;;;;;;5092500;28;20640;-85
2024/03/01 06:56:46;;;;;;;9.43;6.13;;;6.90;99.90;;;;;;5092275;28;20172;-84
2024/03/01 06:59:11;;;;;;;14.53;5.37;;;6.80;99.90;;;;;;5092188;28;20639;-89
2024/03/01 07:01:39;;;;;;;7.30;4.80;;;6.70;99.90;;;;;;5089970;28;20195;-85
2024/03/01 07:04:05;;;;;;;8.20;4.93;;;6.80;99.90;;;;;;5091854;28;20172;-86
2024/03/01 07:06:31;;;;;;;8.80;4.80;;;6.70;99.90;;;;;;5088192;28;20243;-86
2024/03/01 07:08:57;;;;;;;7.07;4.70;;;6.80;99.90;;;;;;5089167;28;20199;-85
2024/03/01 07:11:25;;;;;;;9.13;5.00;;;6.70;99.90;;;;;;5087308;28;20190;-82
2024/03/01 07:13:51;;;;;;;7.53;4.57;;;6.80;99.90;;;;;;5087368;28;20213;-88
2024/03/01 07:16:16;;;;;;;8.33;4.67;;;6.90;99.90;;;;;;5086608;28;20210;-89
2024/03/01 07:18:42;;;;;;;10.10;4.77;;;6.90;99.90;;;;;;5090919;28;20587;-85
2024/03/01 07:21:08;;;;;;;7.53;4.27;;;7.00;99.90;;;;;;5083844;28;20168;-84
2024/03/01 07:23:33;;;;;;;9.70;4.40;;;6.90;99.90;;;;;;5070112;28;20810;-91
2024/03/01 07:25:59;;;;;;;7.07;4.20;;;7.00;99.90;;;;;;5071662;28;20261;-84
2024/03/01 07:28:25;;;;;;;8.03;4.00;;;6.90;99.90;;;;;;5071815;28;20530;-84
2024/03/01 07:30:50;;;;;;;10.03;4.47;;;6.80;99.90;;;;;;5071473;28;20235;-90
2024/03/01 07:33:16;;;;;;;8.53;4.27;;;7.00;99.90;;;;;;5072260;28;20583;-86
2024/03/01 07:35:42;;;;;;;7.27;3.73;;;7.10;99.90;;;;;;5073072;28;20225;-84
2024/03/01 07:38:08;;;;;;;8.70;4.00;;;7.10;99.90;;;;;;5076371;28;20176;-85
2024/03/01 07:40:34;;;;;;;12.33;4.90;;;7.00;99.90;;;;;;5081590;28;20278;-84
2024/03/01 07:43:00;;;;;;;8.80;5.87;;;7.00;99.90;;;;;;5075412;28;20276;-87
2024/03/01 07:45:28;;;;;;;10.33;4.17;;;7.00;99.90;;;;;;5071272;28;20286;-84
2024/03/01 07:47:53;;;;;;;6.70;3.70;;;7.10;99.90;;;;;;5072224;28;20229;-84
2024/03/01 07:50:20;;;;;;;5.37;3.10;;;7.30;99.90;;;;;;5071992;28;20176;-86
2024/03/01 07:52:46;;;;;;;6.87;3.20;;;7.30;99.90;;;;;;5070994;28;20199;-87
2024/03/01 07:55:11;;;;;;;12.87;3.50;;;7.20;99.90;;;;;;5071675;28;20625;-86
2024/03/01 07:57:37;;;;;;;7.90;3.40;;;7.10;99.90;;;;;;5071671;28;20628;-87
2024/03/01 08:00:04;;;;;;;10.90;3.17;;;7.10;99.90;;;;;;5071871;28;20196;-90
2024/03/01 08:02:30;;;;;;;7.97;3.10;;;7.20;99.90;;;;;;5072031;28;20187;-89
2024/03/01 08:04:56;;;;;;;6.40;2.97;;;7.30;99.90;;;;;;5071997;28;20196;-87
2024/03/01 08:07:23;;;;;;;8.07;2.80;;;7.40;99.90;;;;;;5071993;28;20199;-84
2024/03/01 08:09:49;;;;;;;7.70;3.03;;;7.30;99.90;;;;;;5073129;28;20164;-83
2024/03/01 08:12:18;;;;;;;7.73;2.40;;;7.50;99.90;;;;;;5077742;28;20168;-87
2024/03/01 08:14:44;;;;;;;4.83;2.20;;;7.30;99.90;;;;;;5090851;28;20262;-92
2024/03/01 08:17:10;;;;;;;6.13;2.80;;;7.40;99.90;;;;;;5092648;28;20186;-85
2024/03/01 08:19:37;;;;;;;4.23;1.87;;;7.50;99.90;;;;;;5089160;28;20179;-90
2024/03/01 08:22:13;;;;;;;6.37;2.40;;;7.50;99.90;;;;;;5090936;28;20175;-91
2024/03/01 08:24:44;;;;;;;5.13;2.37;;;7.40;99.90;;;;;;5088927;28;20259;-88
2024/03/01 08:27:13;;;;;;;5.23;2.40;;;7.50;99.90;;;;;;5088165;28;20195;-87
2024/03/01 08:29:40;;;;;;;6.57;2.50;;;7.60;99.90;;;;;;5088144;28;20640;-83
2024/03/01 08:32:36;;;;;;;5.67;2.10;;;7.70;99.90;;;;;;5089188;28;20254;-87
2024/03/01 08:35:03;;;;;;;6.60;2.30;;;7.70;99.90;;;;;;5088633;28;20239;-89
2024/03/01 08:37:31;;;;;;;7.63;2.70;;;7.60;99.90;;;;;;5088798;28;20179;-89
2024/03/01 08:39:56;;;;;;;6.33;2.37;;;7.70;99.90;;;;;;5092549;28;20202;-88
2024/03/01 08:42:24;;;;;;;6.87;2.43;;;7.90;99.90;;;;;;5091983;28;20175;-87
2024/03/01 08:44:59;;;;;;;6.73;2.27;;;7.90;99.90;;;;;;5091565;28;20203;-87
2024/03/01 08:47:37;;;;;;;7.00;2.57;;;8.00;99.90;;;;;;5092664;28;20179;-90
2024/03/01 08:50:25;;;;;;;8.20;2.20;;;8.10;99.90;;;;;;5090209;28;20175;-88
2024/03/01 08:52:52;;;;;;;5.93;2.57;;;8.30;99.90;;;;;;5091777;28;20172;-89
2024/03/01 08:55:17;;;;;;;5.07;3.17;;;8.40;99.90;;;;;;5092777;28;20714;-86
2024/03/01 08:57:45;;;;;;;7.40;2.40;;;8.40;99.90;;;;;;5092188;28;20191;-84
2024/03/01 09:00:26;;;;;;;6.10;2.30;;;8.50;99.90;;;;;;5092185;28;20191;-91
2024/03/01 09:02:52;;;;;;;7.33;2.20;;;8.60;98.50;;;;;;5092327;28;20179;-86
2024/03/01 09:05:21;;;;;;;6.00;2.00;;;8.60;97.00;;;;;;5091955;28;20222;-88
2024/03/01 09:07:47;;;;;;;7.57;2.30;;;8.70;94.90;;;;;;5092011;28;20225;-88
2024/03/01 09:10:26;;;;;;;3.37;1.90;;;8.80;92.60;;;;;;5092198;28;20195;-91
2024/03/01 09:12:52;;;;;;;7.47;2.20;;;8.80;92.40;;;;;;5094137;28;20190;-86
2024/03/01 09:15:27;;;;;;;7.37;2.43;;;9.00;90.90;;;;;;5091810;28;20171;-90
2024/03/01 09:17:54;;;;;;;4.87;2.80;;;8.90;87.90;;;;;;5093628;28;20276;-90
2024/03/01 09:20:39;;;;;;;6.30;2.40;;;9.00;86.50;;;;;;5092282;28;20171;-86
2024/03/01 09:23:13;;;;;;;4.03;2.03;;;8.90;82.00;;;;;;5091847;28;20329;-89
2024/03/01 09:25:47;;;;;;;5.37;2.20;;;8.90;77.10;;;;;;5091116;28;20669;-88
2024/03/01 09:28:17;;;;;;;5.80;3.17;;;8.80;81.50;;;;;;5091440;28;20175;-88
2024/03/01 09:30:47;;;;;;;8.53;2.23;;;9.10;82.10;;;;;;5091028;28;20187;-89
2024/03/01 09:33:16;;;;;;;4.47;1.83;;;9.10;74.80;;;;;;5091212;28;20190;-87
2024/03/01 09:35:42;;;;;;;4.27;1.60;;;9.10;72.70;;;;;;5090558;28;20631;-87
2024/03/01 09:38:15;;;;;;;7.83;2.10;;;9.10;70.70;;;;;;5092391;28;20236;-87
2024/03/01 09:40:49;;;;;;;6.23;1.70;;;9.30;69.10;;;;;;5092824;28;20206;-87
2024/03/01 09:43:52;;;;;;;4.50;2.00;;;9.30;58.90;;;;;;5095394;28;20239;-87
2024/03/01 09:46:32;;;;;;;5.00;1.70;;;9.30;56.20;;;;;;5091125;28;20225;-87
2024/03/01 09:49:31;;;;;;;4.27;1.87;;;9.40;53.60;;;;;;5090881;28;20648;-87
2024/03/01 09:52:38;;;;;;;7.23;2.50;;;9.40;50.50;;;;;;5089907;28;20207;-89
2024/03/01 09:55:34;;;;;;;4.67;1.60;;;9.60;49.90;;;;;;5086947;28;20207;-91
2024/03/01 09:58:30;;;;;;;4.97;1.70;;;9.50;40.10;;;;;;5075490;28;20699;-90
2024/03/01 10:01:13;;;;;;;3.93;1.53;;;9.80;33.90;;;;;;5090865;28;20199;-90
2024/03/01 10:04:31;;;;;;;3.70;1.40;;;9.90;23.80;;;;;;5090498;28;20291;-85
2024/03/01 10:07:12;;;;;;;5.83;1.80;;;10.10;1.00;;;;;;5060005;28;20777;-85
2024/03/01 10:09:46;;;;;;;4.40;1.83;;;10.00;1.00;;;;;;5092522;28;20182;-90
2024/03/01 10:12:12;;;;;;;4.17;1.30;;;10.00;1.00;;;;;;5098471;28;20159;-86
2024/03/01 10:15:02;;;;;;;4.60;1.50;;;10.00;1.00;;;;;;5092752;28;20681;-92
2024/03/01 10:17:57;;;;;;;4.33;1.40;;;9.90;1.00;;;;;;5091879;28;20232;-86
2024/03/01 10:20:51;;;;;;;6.23;1.60;;;9.80;1.00;;;;;;5091113;28;20183;-85
2024/03/01 10:23:50;;;;;;;3.33;1.30;;;9.90;1.00;;;;;;5073359;28;20183;-86
2024/03/01 10:26:27;;;;;;;5.67;1.87;;;9.90;1.00;;;;;;5090014;28;20207;-88
2024/03/01 10:29:05;;;;;;;4.67;1.67;;;10.10;1.00;;;;;;5088268;28;20230;-85
2024/03/01 10:31:45;;;;;;;7.27;1.80;;;10.20;1.00;;;;;;5086313;28;20183;-89
2024/03/01 10:34:45;;;;;;;7.53;1.77;;;10.30;1.00;;;;;;5088521;28;20206;-88
2024/03/01 10:37:28;;;;;;;6.27;1.50;;;10.40;1.00;;;;;;5085027;28;20183;-87
2024/03/01 10:40:15;;;;;;;6.83;1.80;;;10.50;1.00;;;;;;5096209;28;20184;-82
2024/03/01 10:42:43;;;;;;;7.00;1.83;;;10.50;1.00;;;;;;5097227;28;20573;-92
2024/03/01 10:45:20;;;;;;;5.30;1.87;;;10.60;1.00;;;;;;5091118;28;20203;-86
2024/03/01 10:47:48;;;;;;;3.20;1.63;;;10.60;1.00;;;;;;5094149;28;20195;-91
2024/03/01 10:50:20;;;;;;;5.63;1.70;;;10.70;1.00;;;;;;5091599;28;20229;-87
2024/03/01 10:53:03;;;;;;;4.63;1.40;;;10.50;1.00;;;;;;5088996;28;20527;-85
2024/03/01 10:55:41;;;;;;;3.70;1.50;;;10.30;1.00;;;;;;5090437;28;20302;-88
2024/03/01 10:58:13;;;;;;;5.13;1.60;;;10.20;1.00;;;;;;5088669;28;20535;-85
2024/03/01 11:01:19;;;;;;;4.60;1.53;;;10.20;1.00;;;;;;5087651;28;20199;-84
2024/03/01 11:03:49;;;;;;;4.83;1.90;;;10.10;1.00;;;;;;5040042;28;20194;-89
2024/03/01 11:06:43;;;;;;;5.83;1.80;;;10.20;1.00;;;;;;5093303;28;20253;-88
2024/03/01 11:09:23;;;;;;;2.47;1.20;;;10.20;1.00;;;;;;5093035;28;20221;-92
2024/03/01 11:12:12;;;;;;;4.27;1.57;;;10.20;1.00;;;;;;5091219;28;20171;-89
2024/03/01 11:14:46;;;;;;;4.97;1.70;;;10.10;1.00;;;;;;5093898;28;20163;-89
2024/03/01 11:17:12;;;;;;;4.93;1.80;;;10.20;1.00;;;;;;5092813;28;20172;-88
2024/03/01 11:19:41;;;;;;;4.40;2.10;;;10.20;1.00;;;;;;5092268;28;20655;-90
2024/03/01 11:22:23;;;;;;;4.53;1.60;;;10.30;1.00;;;;;;5091582;28;20183;-85
2024/03/01 11:25:07;;;;;;;4.57;1.53;;;10.30;1.00;;;;;;5093671;28;20164;-89
2024/03/01 11:27:38;;;;;;;2.47;1.30;;;10.50;99.90;;;;;;5092588;28;20171;-86
2024/03/01 11:30:05;;;;;;;3.87;1.53;;;10.40;99.90;;;;;;5092231;28;20266;-85
2024/03/01 11:32:38;;;;;;;3.67;1.23;;;10.30;99.90;;;;;;5092614;28;20660;-87
2024/03/01 11:35:21;;;;;;;4.40;1.50;;;10.30;99.90;;;;;;5092046;28;20167;-89
2024/03/01 11:37:57;;;;;;;3.23;1.50;;;10.30;99.90;;;;;;5092036;28;20189;-87
2024/03/01 11:40:58;;;;;;;4.47;1.63;;;10.40;99.90;;;;;;5091895;28;20263;-86
2024/03/01 11:43:48;;;;;;;4.63;1.27;;;10.40;99.90;;;;;;5093382;28;20242;-86
2024/03/01 11:46:52;;;;;;;5.77;1.60;;;10.30;99.90;;;;;;5091607;28;20207;-87
2024/03/01 11:49:53;;;;;;;4.90;1.60;;;10.30;99.90;;;;;;5038287;28;20186;-87
2024/03/01 11:52:28;;;;;;;4.77;1.20;;;10.40;99.90;;;;;;5091252;28;20183;-86
2024/03/01 11:55:36;;;;;;;3.87;1.63;;;10.30;99.90;;;;;;5092516;28;20238;-85
2024/03/01 11:58:16;;;;;;;2.43;1.07;;;10.30;99.90;;;;;;5091246;28;20278;-88
2024/03/01 12:01:14;;;;;;;7.10;2.07;;;10.20;99.90;;;;;;5092199;28;20191;-85
2024/03/01 12:04:03;;;;;;;4.43;1.53;;;10.20;99.90;;;;;;5092249;28;20185;-91
2024/03/01 12:06:43;;;;;;;5.80;1.43;;;10.40;99.90;;;;;;5089827;28;20212;-85
2024/03/01 12:09:23;;;;;;;4.87;1.57;;;10.30;99.90;;;;;;5076804;28;20176;-90
2024/03/01 12:12:18;;;;;;;3.27;1.33;;;10.20;99.90;;;;;;5071874;28;20461;-87
2024/03/01 12:14:57;;;;;;;4.30;1.40;;;10.20;99.90;;;;;;5077639;28;20179;-91
2024/03/01 12:17:32;;;;;;;4.27;1.47;;;10.20;99.90;;;;;;5075897;28;20537;-85
2024/03/01 12:20:06;;;;;;;3.50;1.40;;;10.20;99.90;;;;;;5075744;28;20168;-90
2024/03/01 12:22:59;;;;;;;8.13;1.80;;;10.10;99.90;;;;;;5075700;28;20179;-86
2024/03/01 12:25:26;;;;;;;6.97;1.73;;;10.10;99.90;;;;;;5078494;28;20210;-88
2024/03/01 12:28:15;;;;;;;6.13;2.63;;;10.10;99.90;;;;;;5086526;28;20171;-86
2024/03/01 12:30:56;;;;;;;6.17;1.60;;;10.00;1.00;;;;;;5055579;28;20180;-86
2024/03/01 12:33:45;;;;;;;2.73;1.60;;;10.00;12.50;;;;;;5084242;28;20650;-88
2024/03/01 12:36:19;;;;;;;5.50;1.63;;;10.00;15.50;;;;;;5085975;28;20548;-87
2024/03/01 12:39:02;;;;;;;6.17;1.53;;;9.90;13.10;;;;;;5087140;28;20186;-89
2024/03/01 12:41:53;;;;;;;7.27;2.20;;;9.90;99.90;;;;;;5087305;28;20164;-87
2024/03/01 12:44:42;;;;;;;3.53;1.40;;;9.90;99.90;;;;;;5086625;28;20240;-87
2024/03/01 12:47:32;;;;;;;5.40;1.57;;;9.90;99.90;;;;;;5085727;28;20176;-89
2024/03/01 12:50:40;;;;;;;6.50;1.40;;;9.90;99.90;;;;;;5084000;28;20165;-86
2024/03/01 12:53:20;;;;;;;5.00;1.90;;;9.90;99.90;;;;;;5085471;28;20624;-90
2024/03/01 12:56:08;;;;;;;3.90;1.50;;;9.90;99.90;;;;;;5083513;28;20182;-86
2024/03/01 12:58:57;;;;;;;6.10;1.80;;;10.00;99.90;;;;;;5085856;28;20160;-86
2024/03/01 13:01:53;;;;;;;6.70;2.10;;;10.00;99.90;;;;;;5084184;28;20195;-88
2024/03/01 13:04:37;;;;;;;8.50;1.77;;;10.00;99.90;;;;;;5085055;28;20179;-87
2024/03/01 13:07:07;;;;;;;5.97;1.43;;;10.20;99.90;;;;;;5083664;28;20257;-85
2024/03/01 13:09:42;;;;;;;7.40;1.70;;;10.20;99.90;;;;;;5082712;28;20207;-84
2024/03/01 13:12:11;;;;;;;5.43;1.93;;;10.20;99.90;;;;;;5082836;28;20216;-84
2024/03/01 13:15:07;;;;;;;4.80;1.57;;;10.20;99.90;;;;;;5082819;28;20648;-86